createdAt,value
2023-01-11T00:01:50.917Z,5.61
2023-01-11T00:06:50.656Z,5.63
2023-01-11T00:11:42.405Z,5.69
2023-01-11T00:16:34.086Z,5.74
2023-01-11T00:21:26.643Z,5.76
2023-01-11T00:26:18.441Z,5.82
2023-01-11T00:31:10.218Z,5.89
2023-01-11T00:36:01.946Z,6.05
2023-01-11T00:40:53.647Z,6.07
2023-01-11T00:46:04.099Z,6.17
2023-01-11T00:50:57.577Z,6.25
2023-01-11T00:55:49.289Z,6.36
2023-01-11T01:00:40.963Z,6.45
2023-01-11T01:10:39.132Z,6.86
2023-01-11T01:15:31.996Z,6.98
2023-01-11T01:20:25.438Z,7.07
2023-01-11T01:25:17.260Z,7.21
2023-01-11T01:30:10.165Z,7.14
2023-01-11T01:35:01.923Z,7.18
2023-01-11T01:39:53.656Z,7.22
2023-01-11T01:45:06.740Z,7.11
2023-01-11T01:50:11.934Z,7.10
2023-01-11T01:55:12.607Z,7.06
2023-01-11T02:05:17.236Z,7.02
2023-01-11T02:10:20.836Z,6.96
2023-01-11T02:15:14.724Z,6.98
2023-01-11T02:21:09.206Z,7.00
2023-01-11T02:26:12.757Z,7.06
2023-01-11T02:31:35.706Z,7.07
2023-01-11T02:36:54.973Z,7.02
2023-01-11T02:42:54.933Z,6.99
2023-01-11T02:48:07.588Z,6.91
2023-01-11T02:53:16.641Z,6.83
2023-01-11T02:58:12.329Z,6.78
2023-01-11T03:03:22.406Z,6.68
2023-01-11T03:09:00.115Z,6.48
2023-01-11T03:14:16.131Z,6.38
2023-01-11T03:19:36.509Z,6.31
2023-01-11T03:24:37.416Z,6.20
2023-01-11T03:29:39.944Z,6.11
2023-01-11T03:34:47.929Z,6.06
2023-01-11T03:40:17.266Z,6.06
2023-01-11T03:45:10.119Z,6.05
2023-01-11T03:50:11.089Z,6.05
2023-01-11T03:55:08.051Z,6.01
2023-01-11T04:00:01.099Z,6.01
2023-01-11T04:04:53.147Z,6.04
2023-01-11T04:09:46.606Z,6.07
2023-01-11T04:14:38.625Z,6.11
2023-01-11T04:19:30.383Z,6.19
2023-01-11T04:24:22.103Z,6.31
2023-01-11T04:29:13.871Z,6.30
2023-01-11T04:34:05.618Z,6.68
2023-01-11T04:38:58.552Z,6.82
2023-01-11T04:43:50.428Z,6.84
2023-01-11T04:48:42.164Z,6.99
2023-01-11T04:53:34.854Z,6.94
2023-01-11T04:58:26.633Z,6.94
2023-01-11T05:03:19.039Z,7.26
2023-01-11T05:08:21.185Z,7.43
2023-01-11T05:18:20.635Z,7.66
2023-01-11T05:23:14.178Z,7.54
2023-01-11T05:28:05.923Z,7.49
2023-01-11T05:33:07.775Z,7.28
2023-01-11T05:38:03.487Z,7.45
2023-01-11T05:43:00.204Z,7.59
2023-01-11T05:58:14.603Z,7.23
2023-01-11T07:04:46.730Z,7.02
2023-01-11T07:09:43.301Z,6.90
2023-01-11T07:19:42.616Z,6.83
2023-01-11T08:05:30.454Z,7.30
2023-01-11T08:10:26.339Z,7.40
2023-01-11T08:15:19.166Z,7.47
2023-01-11T08:50:58.182Z,8.71
2023-01-11T09:21:53.370Z,9.83
2023-01-11T09:26:46.649Z,9.98
2023-01-11T09:59:37.801Z,9.30
2023-01-11T10:18:29.553Z,9.91
2023-01-11T10:55:28.051Z,10.69
2023-01-11T11:00:52.638Z,10.63
2023-01-11T12:35:23.404Z,8.83
2023-01-11T13:30:54.284Z,8.54
2023-01-11T13:52:08.170Z,8.45
2023-01-11T14:30:59.395Z,8.67
2023-01-11T14:48:47.413Z,8.52
2023-01-11T15:30:55.612Z,8.51
2023-01-11T15:35:58.552Z,8.49
2023-01-11T15:46:32.257Z,8.45
2023-01-11T17:12:36.690Z,8.49
2023-01-11T17:28:28.451Z,8.51
2023-01-11T17:33:32.895Z,8.52
2023-01-11T17:38:29.975Z,8.52
2023-01-11T17:48:57.415Z,8.62
2023-01-11T17:53:50.840Z,8.57
2023-01-11T18:04:01.158Z,8.55
2023-01-11T18:08:58.783Z,8.49
2023-01-11T18:13:54.364Z,8.57
2023-01-11T18:18:50.338Z,8.49
2023-01-11T18:28:51.281Z,8.42
2023-01-11T18:38:58.772Z,8.39
2023-01-11T18:43:59.718Z,8.35
2023-01-11T18:48:53.725Z,8.33
2023-01-11T18:53:49.551Z,8.30
2023-01-11T19:03:56.198Z,8.29
2023-01-11T19:13:57.643Z,8.28
2023-01-11T19:18:50.788Z,8.29
2023-01-11T19:23:44.534Z,8.29
2023-01-11T19:28:38.493Z,8.27
2023-01-11T19:33:30.510Z,8.25
2023-01-11T19:38:23.508Z,8.27
2023-01-11T19:43:16.726Z,8.20
2023-01-11T19:53:14.324Z,8.16
2023-01-11T20:13:28.965Z,7.78
2023-01-11T20:18:21.010Z,7.74
2023-01-11T20:28:29.792Z,7.54
2023-01-11T20:38:40.271Z,7.43
2023-01-11T20:43:33.433Z,7.47
2023-01-11T20:48:25.835Z,7.38
2023-01-11T20:53:19.889Z,7.29
2023-01-11T20:58:12.529Z,7.19
2023-01-11T21:03:05.901Z,7.14
2023-01-11T21:07:59.059Z,6.99
2023-01-11T21:12:54.465Z,6.97
2023-01-11T21:17:47.985Z,6.87
2023-01-11T21:22:39.964Z,6.88
2023-01-11T21:32:37.532Z,6.82
2023-01-11T21:37:33.605Z,6.76
2023-01-11T21:42:27.181Z,6.76
2023-01-11T21:47:20.851Z,6.75
2023-01-11T21:52:13.449Z,6.70
2023-01-11T21:57:09.619Z,6.68
2023-01-11T22:02:02.236Z,6.71
2023-01-11T22:06:59.093Z,6.63
2023-01-11T22:11:52.987Z,6.61
2023-01-11T22:21:51.967Z,6.59
2023-01-11T22:26:45.680Z,6.66
2023-01-11T22:31:46.821Z,6.71
2023-01-11T22:36:43.170Z,6.66
2023-01-11T22:46:44.836Z,6.48
2023-01-11T22:51:37.621Z,6.43
2023-01-11T22:56:32.382Z,6.35
2023-01-11T23:06:40.800Z,6.24
2023-01-11T23:12:04.850Z,6.22
2023-01-11T23:17:01.704Z,6.29
2023-01-11T23:21:54.240Z,6.32
2023-01-11T23:26:50.629Z,6.40
2023-01-11T23:31:43.894Z,6.39
2023-01-11T23:36:39.731Z,6.36
2023-01-11T23:41:53.080Z,6.43
2023-01-11T23:47:04.899Z,6.55
2023-01-11T23:51:57.748Z,6.49
2023-01-11T23:56:51.746Z,6.49
